sensor_id;sensor_type;location;lat;lon;timestamp;pressure;altitude;pressure_sealevel;temperature;humidity
24486;BME280;13449;49.374;8.584;2023-10-08T00:00:06;101371.69;;;14.26;100.00
24486;BME280;13449;49.374;8.584;2023-10-08T00:03:03;101361.94;;;14.27;100.00
24486;BME280;13449;49.374;8.584;2023-10-08T00:05:36;101362.78;;;14.27;100.00
24486;BME280;13449;49.374;8.584;2023-10-08T00:08:03;101359.88;;;14.30;100.00
24486;BME280;13449;49.374;8.584;2023-10-08T00:10:37;101370.38;;;14.32;100.00
24486;BME280;13449;49.374;8.584;2023-10-08T00:13:07;101374.81;;;14.31;100.00
24486;BME280;13449;49.374;8.584;2023-10-08T00:15:38;101377.34;;;14.33;100.00
24486;BME280;13449;49.374;8.584;2023-10-08T00:18:16;101378.44;;;14.30;100.00
24486;BME280;13449;49.374;8.584;2023-10-08T00:20:43;101367.84;;;14.30;100.00
24486;BME280;13449;49.374;8.584;2023-10-08T00:23:14;101367.13;;;14.28;100.00
24486;BME280;13449;49.374;8.584;2023-10-08T00:25:43;101361.94;;;14.27;100.00
24486;BME280;13449;49.374;8.584;2023-10-08T00:28:13;101365.44;;;14.27;100.00
24486;BME280;13449;49.374;8.584;2023-10-08T00:30:40;101367.25;;;14.27;100.00
24486;BME280;13449;49.374;8.584;2023-10-08T00:33:08;101369.78;;;14.28;100.00
24486;BME280;13449;49.374;8.584;2023-10-08T00:35:39;101361.22;;;14.25;100.00
24486;BME280;13449;49.374;8.584;2023-10-08T00:38:10;101360.38;;;14.24;100.00
24486;BME280;13449;49.374;8.584;2023-10-08T00:40:47;101368.34;;;14.24;100.00
24486;BME280;13449;49.374;8.584;2023-10-08T00:43:32;101371.31;;;14.20;100.00
24486;BME280;13449;49.374;8.584;2023-10-08T00:46:02;101373.25;;;14.18;100.00
24486;BME280;13449;49.374;8.584;2023-10-08T00:48:44;101374.31;;;14.15;100.00
24486;BME280;13449;49.374;8.584;2023-10-08T00:51:14;101373.84;;;14.10;100.00
24486;BME280;13449;49.374;8.584;2023-10-08T00:53:53;101377.59;;;14.07;100.00
24486;BME280;13449;49.374;8.584;2023-10-08T00:56:29;101372.53;;;14.04;100.00
24486;BME280;13449;49.374;8.584;2023-10-08T00:59:15;101372.84;;;14.00;100.00
24486;BME280;13449;49.374;8.584;2023-10-08T01:01:43;101369.72;;;13.95;100.00
24486;BME280;13449;49.374;8.584;2023-10-08T01:06:46;101366.59;;;13.90;100.00
24486;BME280;13449;49.374;8.584;2023-10-08T01:09:17;101363.31;;;13.86;100.00
24486;BME280;13449;49.374;8.584;2023-10-08T01:14:36;101372.69;;;13.79;100.00
24486;BME280;13449;49.374;8.584;2023-10-08T01:17:02;101380.16;;;13.74;100.00
24486;BME280;13449;49.374;8.584;2023-10-08T01:19:31;101392.03;;;13.68;100.00
24486;BME280;13449;49.374;8.584;2023-10-08T01:22:03;101387.81;;;13.66;100.00
24486;BME280;13449;49.374;8.584;2023-10-08T01:24:32;101394.06;;;13.65;100.00
24486;BME280;13449;49.374;8.584;2023-10-08T01:27:03;101381.28;;;13.59;100.00
24486;BME280;13449;49.374;8.584;2023-10-08T01:29:31;101374.53;;;13.55;100.00
24486;BME280;13449;49.374;8.584;2023-10-08T01:31:58;101371.50;;;13.48;100.00
24486;BME280;13449;49.374;8.584;2023-10-08T01:34:25;101380.50;;;13.45;100.00
24486;BME280;13449;49.374;8.584;2023-10-08T01:36:57;101375.47;;;13.42;100.00
24486;BME280;13449;49.374;8.584;2023-10-08T01:39:28;101376.50;;;13.40;100.00
24486;BME280;13449;49.374;8.584;2023-10-08T01:41:58;101378.53;;;13.36;100.00
24486;BME280;13449;49.374;8.584;2023-10-08T01:44:24;101382.25;;;13.34;100.00
24486;BME280;13449;49.374;8.584;2023-10-08T01:46:51;101377.81;;;13.34;100.00
24486;BME280;13449;49.374;8.584;2023-10-08T01:49:19;101385.25;;;13.29;100.00
24486;BME280;13449;49.374;8.584;2023-10-08T01:51:51;101382.50;;;13.31;100.00
24486;BME280;13449;49.374;8.584;2023-10-08T01:54:17;101387.16;;;13.27;100.00
24486;BME280;13449;49.374;8.584;2023-10-08T01:56:47;101383.03;;;13.23;100.00
24486;BME280;13449;49.374;8.584;2023-10-08T01:59:16;101382.41;;;13.19;100.00
24486;BME280;13449;49.374;8.584;2023-10-08T02:01:46;101386.09;;;13.17;100.00
24486;BME280;13449;49.374;8.584;2023-10-08T02:04:13;101386.34;;;13.14;100.00
24486;BME280;13449;49.374;8.584;2023-10-08T02:06:42;101395.53;;;13.08;100.00
24486;BME280;13449;49.374;8.584;2023-10-08T02:09:09;101395.47;;;13.10;100.00
24486;BME280;13449;49.374;8.584;2023-10-08T02:11:44;101389.53;;;13.06;100.00
24486;BME280;13449;49.374;8.584;2023-10-08T02:14:17;101380.84;;;13.04;100.00
24486;BME280;13449;49.374;8.584;2023-10-08T02:16:43;101370.38;;;13.03;100.00
24486;BME280;13449;49.374;8.584;2023-10-08T02:19:13;101366.06;;;13.02;100.00
24486;BME280;13449;49.374;8.584;2023-10-08T02:21:40;101378.56;;;13.00;100.00
24486;BME280;13449;49.374;8.584;2023-10-08T02:24:07;101376.13;;;12.97;100.00
24486;BME280;13449;49.374;8.584;2023-10-08T02:26:34;101374.44;;;12.96;100.00
24486;BME280;13449;49.374;8.584;2023-10-08T02:29:01;101373.69;;;12.94;100.00
24486;BME280;13449;49.374;8.584;2023-10-08T02:31:28;101368.84;;;12.87;100.00
24486;BME280;13449;49.374;8.584;2023-10-08T02:33:54;101377.13;;;12.83;100.00
24486;BME280;13449;49.374;8.584;2023-10-08T02:36:23;101373.31;;;12.74;100.00
24486;BME280;13449;49.374;8.584;2023-10-08T02:38:50;101376.19;;;12.71;100.00
24486;BME280;13449;49.374;8.584;2023-10-08T02:41:21;101382.88;;;12.64;100.00
24486;BME280;13449;49.374;8.584;2023-10-08T02:43:50;101378.00;;;12.58;100.00
24486;BME280;13449;49.374;8.584;2023-10-08T02:46:17;101383.72;;;12.52;100.00
24486;BME280;13449;49.374;8.584;2023-10-08T02:48:45;101393.03;;;12.45;100.00
24486;BME280;13449;49.374;8.584;2023-10-08T02:51:12;101390.72;;;12.40;100.00
24486;BME280;13449;49.374;8.584;2023-10-08T02:53:47;101395.59;;;12.34;100.00
24486;BME280;13449;49.374;8.584;2023-10-08T02:56:16;101398.13;;;12.35;100.00
24486;BME280;13449;49.374;8.584;2023-10-08T02:58:42;101399.38;;;12.29;100.00
24486;BME280;13449;49.374;8.584;2023-10-08T03:01:13;101395.16;;;12.27;100.00
24486;BME280;13449;49.374;8.584;2023-10-08T03:03:41;101391.16;;;12.21;100.00
24486;BME280;13449;49.374;8.584;2023-10-08T03:06:09;101382.69;;;12.16;100.00
24486;BME280;13449;49.374;8.584;2023-10-08T03:08:41;101374.97;;;12.13;100.00
24486;BME280;13449;49.374;8.584;2023-10-08T03:11:09;101384.56;;;12.14;100.00
24486;BME280;13449;49.374;8.584;2023-10-08T03:13:46;101379.63;;;12.10;100.00
24486;BME280;13449;49.374;8.584;2023-10-08T03:16:20;101385.00;;;12.08;100.00
24486;BME280;13449;49.374;8.584;2023-10-08T03:18:54;101374.66;;;12.05;100.00
24486;BME280;13449;49.374;8.584;2023-10-08T03:21:23;101378.25;;;12.04;100.00
24486;BME280;13449;49.374;8.584;2023-10-08T03:24:07;101371.38;;;12.02;100.00
24486;BME280;13449;49.374;8.584;2023-10-08T03:26:50;101375.50;;;12.06;100.00
24486;BME280;13449;49.374;8.584;2023-10-08T03:29:22;101374.44;;;12.08;100.00
24486;BME280;13449;49.374;8.584;2023-10-08T03:31:57;101373.47;;;12.09;100.00
24486;BME280;13449;49.374;8.584;2023-10-08T03:34:23;101359.44;;;12.09;100.00
24486;BME280;13449;49.374;8.584;2023-10-08T03:36:54;101349.09;;;12.06;100.00
24486;BME280;13449;49.374;8.584;2023-10-08T03:39:32;101358.69;;;12.07;100.00
24486;BME280;13449;49.374;8.584;2023-10-08T03:42:21;101356.06;;;12.07;100.00
24486;BME280;13449;49.374;8.584;2023-10-08T03:44:50;101362.41;;;12.04;100.00
24486;BME280;13449;49.374;8.584;2023-10-08T03:47:19;101362.50;;;12.03;100.00
24486;BME280;13449;49.374;8.584;2023-10-08T03:49:49;101357.44;;;11.99;100.00
24486;BME280;13449;49.374;8.584;2023-10-08T03:52:17;101360.16;;;11.98;100.00
24486;BME280;13449;49.374;8.584;2023-10-08T03:54:52;101361.13;;;11.97;100.00
24486;BME280;13449;49.374;8.584;2023-10-08T03:57:42;101356.88;;;11.94;100.00
24486;BME280;13449;49.374;8.584;2023-10-08T04:00:12;101363.22;;;11.92;100.00
24486;BME280;13449;49.374;8.584;2023-10-08T04:02:45;101373.78;;;11.92;100.00
24486;BME280;13449;49.374;8.584;2023-10-08T04:05:36;101369.47;;;11.91;100.00
24486;BME280;13449;49.374;8.584;2023-10-08T04:08:21;101373.16;;;11.88;100.00
24486;BME280;13449;49.374;8.584;2023-10-08T04:11:00;101368.09;;;11.85;100.00
24486;BME280;13449;49.374;8.584;2023-10-08T04:13:34;101378.66;;;11.85;100.00
24486;BME280;13449;49.374;8.584;2023-10-08T04:16:05;101374.41;;;11.83;100.00
24486;BME280;13449;49.374;8.584;2023-10-08T04:18:32;101381.59;;;11.81;100.00
24486;BME280;13449;49.374;8.584;2023-10-08T04:21:07;101382.31;;;11.83;100.00
24486;BME280;13449;49.374;8.584;2023-10-08T04:23:42;101376.41;;;11.79;100.00
24486;BME280;13449;49.374;8.584;2023-10-08T04:26:11;101386.88;;;11.81;100.00
24486;BME280;13449;49.374;8.584;2023-10-08T04:28:37;101390.53;;;11.78;100.00
24486;BME280;13449;49.374;8.584;2023-10-08T04:31:06;101396.75;;;11.77;100.00
24486;BME280;13449;49.374;8.584;2023-10-08T04:33:44;101393.94;;;11.80;100.00
24486;BME280;13449;49.374;8.584;2023-10-08T04:36:11;101390.63;;;11.77;100.00
24486;BME280;13449;49.374;8.584;2023-10-08T04:38:44;101390.09;;;11.72;100.00
24486;BME280;13449;49.374;8.584;2023-10-08T04:41:15;101388.69;;;11.66;100.00
24486;BME280;13449;49.374;8.584;2023-10-08T04:43:45;101387.63;;;11.56;100.00
24486;BME280;13449;49.374;8.584;2023-10-08T04:46:17;101381.72;;;11.52;100.00
24486;BME280;13449;49.374;8.584;2023-10-08T04:49:03;101382.00;;;11.48;100.00
24486;BME280;13449;49.374;8.584;2023-10-08T04:51:33;101375.88;;;11.47;100.00
24486;BME280;13449;49.374;8.584;2023-10-08T04:54:15;101384.00;;;11.44;100.00
24486;BME280;13449;49.374;8.584;2023-10-08T04:57:01;101384.22;;;11.41;100.00
24486;BME280;13449;49.374;8.584;2023-10-08T04:59:34;101378.28;;;11.37;100.00
24486;BME280;13449;49.374;8.584;2023-10-08T05:02:05;101376.69;;;11.35;100.00
24486;BME280;13449;49.374;8.584;2023-10-08T05:04:43;101383.75;;;11.34;100.00
24486;BME280;13449;49.374;8.584;2023-10-08T05:07:23;101389.28;;;11.44;100.00
24486;BME280;13449;49.374;8.584;2023-10-08T05:09:53;101376.28;;;11.41;100.00
24486;BME280;13449;49.374;8.584;2023-10-08T05:12:34;101378.38;;;11.36;100.00
24486;BME280;13449;49.374;8.584;2023-10-08T05:15:06;101375.50;;;11.53;100.00
24486;BME280;13449;49.374;8.584;2023-10-08T05:17:48;101369.91;;;11.58;100.00
24486;BME280;13449;49.374;8.584;2023-10-08T05:20:18;101374.44;;;11.56;100.00
24486;BME280;13449;49.374;8.584;2023-10-08T05:23:12;101364.59;;;11.45;100.00
24486;BME280;13449;49.374;8.584;2023-10-08T05:25:52;101367.63;;;11.39;100.00
24486;BME280;13449;49.374;8.584;2023-10-08T05:28:36;101372.16;;;11.37;100.00
24486;BME280;13449;49.374;8.584;2023-10-08T05:31:18;101361.78;;;11.34;100.00
24486;BME280;13449;49.374;8.584;2023-10-08T05:34:03;101363.69;;;11.32;100.00
24486;BME280;13449;49.374;8.584;2023-10-08T05:36:30;101366.44;;;11.30;100.00
24486;BME280;13449;49.374;8.584;2023-10-08T05:39:16;101363.25;;;11.25;100.00
24486;BME280;13449;49.374;8.584;2023-10-08T05:42:07;101376.56;;;11.24;100.00
24486;BME280;13449;49.374;8.584;2023-10-08T05:44:48;101377.50;;;11.23;100.00
24486;BME280;13449;49.374;8.584;2023-10-08T05:47:34;101385.50;;;11.21;100.00
24486;BME280;13449;49.374;8.584;2023-10-08T05:50:01;101383.50;;;11.25;100.00
24486;BME280;13449;49.374;8.584;2023-10-08T05:52:47;101382.03;;;11.21;100.00
24486;BME280;13449;49.374;8.584;2023-10-08T05:55:23;101380.31;;;11.20;100.00
24486;BME280;13449;49.374;8.584;2023-10-08T05:58:06;101378.63;;;11.19;100.00
24486;BME280;13449;49.374;8.584;2023-10-08T06:00:46;101382.09;;;11.19;100.00
24486;BME280;13449;49.374;8.584;2023-10-08T06:03:32;101382.03;;;11.21;100.00
24486;BME280;13449;49.374;8.584;2023-10-08T06:06:01;101380.31;;;11.20;100.00
24486;BME280;13449;49.374;8.584;2023-10-08T06:08:41;101391.63;;;11.22;100.00
24486;BME280;13449;49.374;8.584;2023-10-08T06:11:17;101380.13;;;11.23;100.00
24486;BME280;13449;49.374;8.584;2023-10-08T06:14:06;101397.44;;;11.27;100.00
24486;BME280;13449;49.374;8.584;2023-10-08T06:17:05;101397.97;;;11.32;100.00
24486;BME280;13449;49.374;8.584;2023-10-08T06:19:50;101396.81;;;11.36;100.00
24486;BME280;13449;49.374;8.584;2023-10-08T06:22:18;101398.56;;;11.37;100.00
24486;BME280;13449;49.374;8.584;2023-10-08T06:24:50;101412.28;;;11.42;100.00
24486;BME280;13449;49.374;8.584;2023-10-08T06:27:31;101397.72;;;11.49;100.00
24486;BME280;13449;49.374;8.584;2023-10-08T06:29:58;101409.78;;;11.53;100.00
24486;BME280;13449;49.374;8.584;2023-10-08T06:32:25;101414.66;;;11.59;100.00
24486;BME280;13449;49.374;8.584;2023-10-08T06:34:51;101414.25;;;11.65;100.00
24486;BME280;13449;49.374;8.584;2023-10-08T06:37:20;101414.69;;;11.72;100.00
24486;BME280;13449;49.374;8.584;2023-10-08T06:39:47;101422.97;;;11.80;100.00
24486;BME280;13449;49.374;8.584;2023-10-08T06:42:14;101412.88;;;11.87;100.00
24486;BME280;13449;49.374;8.584;2023-10-08T06:44:42;101400.81;;;11.95;100.00
24486;BME280;13449;49.374;8.584;2023-10-08T06:47:13;101408.25;;;12.03;100.00
24486;BME280;13449;49.374;8.584;2023-10-08T06:49:43;101408.25;;;12.16;100.00
24486;BME280;13449;49.374;8.584;2023-10-08T06:52:13;101406.38;;;12.18;100.00
24486;BME280;13449;49.374;8.584;2023-10-08T06:54:45;101421.47;;;12.28;100.00
24486;BME280;13449;49.374;8.584;2023-10-08T06:57:13;101409.31;;;12.39;100.00
24486;BME280;13449;49.374;8.584;2023-10-08T06:59:41;101404.44;;;12.45;100.00
24486;BME280;13449;49.374;8.584;2023-10-08T07:02:09;101412.19;;;12.48;100.00
24486;BME280;13449;49.374;8.584;2023-10-08T07:04:37;101413.53;;;12.54;100.00
24486;BME280;13449;49.374;8.584;2023-10-08T07:07:04;101416.69;;;12.59;100.00
24486;BME280;13449;49.374;8.584;2023-10-08T07:09:35;101423.47;;;12.63;100.00
24486;BME280;13449;49.374;8.584;2023-10-08T07:12:02;101430.25;;;12.67;100.00
24486;BME280;13449;49.374;8.584;2023-10-08T07:14:32;101425.47;;;12.72;100.00
24486;BME280;13449;49.374;8.584;2023-10-08T07:17:00;101432.75;;;12.81;100.00
24486;BME280;13449;49.374;8.584;2023-10-08T07:19:29;101432.31;;;12.87;100.00
24486;BME280;13449;49.374;8.584;2023-10-08T07:22:10;101437.47;;;13.02;100.00
24486;BME280;13449;49.374;8.584;2023-10-08T07:24:49;101445.81;;;13.08;100.00
24486;BME280;13449;49.374;8.584;2023-10-08T07:27:18;101440.94;;;13.15;100.00
24486;BME280;13449;49.374;8.584;2023-10-08T07:29:49;101448.44;;;13.21;100.00
24486;BME280;13449;49.374;8.584;2023-10-08T07:32:15;101460.28;;;13.28;100.00
24486;BME280;13449;49.374;8.584;2023-10-08T07:34:45;101456.97;;;13.37;100.00
24486;BME280;13449;49.374;8.584;2023-10-08T07:37:14;101469.53;;;13.46;100.00
24486;BME280;13449;49.374;8.584;2023-10-08T07:39:43;101477.44;;;13.59;100.00
24486;BME280;13449;49.374;8.584;2023-10-08T07:42:16;101466.56;;;13.75;100.00
24486;BME280;13449;49.374;8.584;2023-10-08T07:44:42;101460.97;;;13.91;100.00
24486;BME280;13449;49.374;8.584;2023-10-08T07:47:10;101451.13;;;14.04;100.00
24486;BME280;13449;49.374;8.584;2023-10-08T07:49:38;101437.00;;;14.27;100.00
24486;BME280;13449;49.374;8.584;2023-10-08T07:52:05;101445.38;;;14.45;100.00
24486;BME280;13449;49.374;8.584;2023-10-08T07:54:32;101455.63;;;14.61;100.00
24486;BME280;13449;49.374;8.584;2023-10-08T07:57:02;101462.97;;;14.80;100.00
24486;BME280;13449;49.374;8.584;2023-10-08T07:59:52;101456.25;;;14.87;100.00
24486;BME280;13449;49.374;8.584;2023-10-08T08:02:27;101462.50;;;14.97;100.00
24486;BME280;13449;49.374;8.584;2023-10-08T08:04:54;101459.59;;;15.11;100.00
24486;BME280;13449;49.374;8.584;2023-10-08T08:07:23;101473.09;;;15.19;100.00
24486;BME280;13449;49.374;8.584;2023-10-08T08:09:52;101470.44;;;15.31;100.00
24486;BME280;13449;49.374;8.584;2023-10-08T08:12:25;101478.34;;;15.42;100.00
24486;BME280;13449;49.374;8.584;2023-10-08T08:14:53;101483.53;;;15.54;100.00
24486;BME280;13449;49.374;8.584;2023-10-08T08:17:21;101486.19;;;15.66;100.00
24486;BME280;13449;49.374;8.584;2023-10-08T08:19:51;101480.72;;;15.78;100.00
24486;BME280;13449;49.374;8.584;2023-10-08T08:22:22;101489.47;;;15.90;100.00
24486;BME280;13449;49.374;8.584;2023-10-08T08:24:54;101479.19;;;15.97;100.00
24486;BME280;13449;49.374;8.584;2023-10-08T08:27:42;101477.84;;;16.02;100.00
24486;BME280;13449;49.374;8.584;2023-10-08T08:30:15;101466.94;;;16.05;100.00
24486;BME280;13449;49.374;8.584;2023-10-08T08:32:45;101475.38;;;16.10;100.00
24486;BME280;13449;49.374;8.584;2023-10-08T08:35:19;101488.03;;;16.18;100.00
24486;BME280;13449;49.374;8.584;2023-10-08T08:37:46;101493.56;;;16.26;100.00
24486;BME280;13449;49.374;8.584;2023-10-08T08:40:18;101498.59;;;16.29;100.00
24486;BME280;13449;49.374;8.584;2023-10-08T08:42:46;101481.72;;;16.40;100.00
24486;BME280;13449;49.374;8.584;2023-10-08T08:45:19;101492.69;;;16.46;100.00
24486;BME280;13449;49.374;8.584;2023-10-08T08:47:51;101483.91;;;16.56;100.00
24486;BME280;13449;49.374;8.584;2023-10-08T08:50:18;101490.41;;;16.63;100.00
24486;BME280;13449;49.374;8.584;2023-10-08T08:52:45;101488.94;;;16.70;100.00
24486;BME280;13449;49.374;8.584;2023-10-08T08:55:13;101487.03;;;16.82;100.00
24486;BME280;13449;49.374;8.584;2023-10-08T08:57:46;101481.31;;;16.86;100.00
24486;BME280;13449;49.374;8.584;2023-10-08T09:00:14;101486.81;;;16.94;100.00
24486;BME280;13449;49.374;8.584;2023-10-08T09:02:41;101486.72;;;17.05;100.00
24486;BME280;13449;49.374;8.584;2023-10-08T09:05:08;101494.16;;;17.12;100.00
24486;BME280;13449;49.374;8.584;2023-10-08T09:08:04;101520.09;;;17.19;100.00
24486;BME280;13449;49.374;8.584;2023-10-08T09:10:34;101510.75;;;17.25;100.00
24486;BME280;13449;49.374;8.584;2023-10-08T09:13:05;101529.41;;;17.25;100.00
24486;BME280;13449;49.374;8.584;2023-10-08T09:15:33;101522.09;;;17.27;100.00
24486;BME280;13449;49.374;8.584;2023-10-08T09:18:00;101513.84;;;17.30;100.00
24486;BME280;13449;49.374;8.584;2023-10-08T09:20:28;101502.50;;;17.28;100.00
24486;BME280;13449;49.374;8.584;2023-10-08T09:23:08;101513.56;;;17.33;100.00
24486;BME280;13449;49.374;8.584;2023-10-08T09:25:41;101533.50;;;17.39;100.00
24486;BME280;13449;49.374;8.584;2023-10-08T09:28:09;101534.06;;;17.42;100.00
24486;BME280;13449;49.374;8.584;2023-10-08T09:30:40;101534.06;;;17.42;100.00
24486;BME280;13449;49.374;8.584;2023-10-08T09:33:11;101531.31;;;17.53;100.00
24486;BME280;13449;49.374;8.584;2023-10-08T09:35:42;101531.03;;;17.56;100.00
24486;BME280;13449;49.374;8.584;2023-10-08T09:38:12;101530.19;;;17.65;100.00
24486;BME280;13449;49.374;8.584;2023-10-08T09:40:42;101519.53;;;17.65;100.00
24486;BME280;13449;49.374;8.584;2023-10-08T09:43:13;101512.28;;;17.67;100.00
24486;BME280;13449;49.374;8.584;2023-10-08T09:45:53;101511.59;;;17.75;100.00
24486;BME280;13449;49.374;8.584;2023-10-08T09:48:25;101516.09;;;17.75;100.00
24486;BME280;13449;49.374;8.584;2023-10-08T09:50:53;101505.56;;;17.73;100.00
24486;BME280;13449;49.374;8.584;2023-10-08T09:53:30;101513.41;;;17.75;100.00
24486;BME280;13449;49.374;8.584;2023-10-08T09:55:59;101526.47;;;17.78;100.00
24486;BME280;13449;49.374;8.584;2023-10-08T09:58:27;101528.31;;;17.87;100.00
24486;BME280;13449;49.374;8.584;2023-10-08T10:00:56;101556.66;;;17.88;100.00
24486;BME280;13449;49.374;8.584;2023-10-08T10:03:25;101539.41;;;18.02;100.00
24486;BME280;13449;49.374;8.584;2023-10-08T10:05:55;101527.47;;;18.06;100.00
24486;BME280;13449;49.374;8.584;2023-10-08T10:08:26;101524.38;;;18.10;100.00
24486;BME280;13449;49.374;8.584;2023-10-08T10:10:59;101515.84;;;18.16;100.00
24486;BME280;13449;49.374;8.584;2023-10-08T10:13:34;101500.94;;;18.23;100.00
24486;BME280;13449;49.374;8.584;2023-10-08T10:16:01;101505.00;;;18.37;100.00
24486;BME280;13449;49.374;8.584;2023-10-08T10:18:28;101508.06;;;18.52;100.00
24486;BME280;13449;49.374;8.584;2023-10-08T10:21:00;101488.41;;;18.53;100.00
24486;BME280;13449;49.374;8.584;2023-10-08T10:23:49;101510.31;;;18.66;100.00
24486;BME280;13449;49.374;8.584;2023-10-08T10:26:30;101499.88;;;18.73;100.00
24486;BME280;13449;49.374;8.584;2023-10-08T10:31:48;101482.47;;;18.78;100.00
24486;BME280;13449;49.374;8.584;2023-10-08T10:34:26;101486.09;;;18.77;100.00
24486;BME280;13449;49.374;8.584;2023-10-08T10:36:58;101496.59;;;18.89;100.00
24486;BME280;13449;49.374;8.584;2023-10-08T10:39:29;101504.88;;;18.95;100.00
24486;BME280;13449;49.374;8.584;2023-10-08T10:42:03;101484.38;;;18.96;100.00
24486;BME280;13449;49.374;8.584;2023-10-08T10:44:33;101494.16;;;19.05;100.00
24486;BME280;13449;49.374;8.584;2023-10-08T10:47:03;101496.25;;;19.11;100.00
24486;BME280;13449;49.374;8.584;2023-10-08T10:49:43;101506.47;;;19.15;100.00
24486;BME280;13449;49.374;8.584;2023-10-08T10:52:21;101492.38;;;19.23;100.00
24486;BME280;13449;49.374;8.584;2023-10-08T10:55:07;101496.38;;;19.37;100.00
24486;BME280;13449;49.374;8.584;2023-10-08T10:57:54;101495.63;;;19.44;100.00
24486;BME280;13449;49.374;8.584;2023-10-08T11:00:30;101487.16;;;19.49;100.00
24486;BME280;13449;49.374;8.584;2023-10-08T11:03:03;101488.25;;;19.56;100.00
24486;BME280;13449;49.374;8.584;2023-10-08T11:05:45;101479.81;;;19.61;100.00
24486;BME280;13449;49.374;8.584;2023-10-08T11:08:20;101482.94;;;19.74;100.00
24486;BME280;13449;49.374;8.584;2023-10-08T11:10:51;101467.13;;;19.81;100.00
24486;BME280;13449;49.374;8.584;2023-10-08T11:13:23;101480.28;;;19.92;100.00
24486;BME280;13449;49.374;8.584;2023-10-08T11:15:55;101482.16;;;19.99;100.00
24486;BME280;13449;49.374;8.584;2023-10-08T11:18:26;101486.91;;;20.06;100.00
24486;BME280;13449;49.374;8.584;2023-10-08T11:21:05;101473.22;;;20.09;100.00
24486;BME280;13449;49.374;8.584;2023-10-08T11:23:46;101464.09;;;20.19;100.00
24486;BME280;13449;49.374;8.584;2023-10-08T11:26:20;101453.13;;;20.22;100.00
24486;BME280;13449;49.374;8.584;2023-10-08T11:28:50;101444.25;;;20.22;100.00
24486;BME280;13449;49.374;8.584;2023-10-08T11:31:17;101435.78;;;20.34;100.00
24486;BME280;13449;49.374;8.584;2023-10-08T11:33:47;101449.78;;;20.46;100.00
24486;BME280;13449;49.374;8.584;2023-10-08T11:36:26;101445.78;;;20.50;100.00
24486;BME280;13449;49.374;8.584;2023-10-08T11:39:10;101434.03;;;20.43;100.00
24486;BME280;13449;49.374;8.584;2023-10-08T11:41:38;101429.94;;;20.57;100.00
24486;BME280;13449;49.374;8.584;2023-10-08T11:44:19;101439.16;;;20.62;100.00
24486;BME280;13449;49.374;8.584;2023-10-08T11:46:46;101442.16;;;20.59;100.00
24486;BME280;13449;49.374;8.584;2023-10-08T11:49:18;101426.44;;;20.64;100.00
24486;BME280;13449;49.374;8.584;2023-10-08T11:51:46;101427.00;;;20.68;100.00
24486;BME280;13449;49.374;8.584;2023-10-08T11:54:13;101431.50;;;20.68;100.00
24486;BME280;13449;49.374;8.584;2023-10-08T11:56:41;101434.88;;;20.70;100.00
24486;BME280;13449;49.374;8.584;2023-10-08T11:59:08;101453.97;;;20.75;100.00
24486;BME280;13449;49.374;8.584;2023-10-08T12:01:39;101441.56;;;20.74;100.00
24486;BME280;13449;49.374;8.584;2023-10-08T12:04:09;101441.25;;;20.77;100.00
24486;BME280;13449;49.374;8.584;2023-10-08T12:06:43;101430.50;;;20.69;100.00
24486;BME280;13449;49.374;8.584;2023-10-08T12:09:18;101444.41;;;20.72;100.00
24486;BME280;13449;49.374;8.584;2023-10-08T12:11:48;101430.53;;;20.77;100.00
24486;BME280;13449;49.374;8.584;2023-10-08T12:14:15;101432.53;;;20.75;100.00
24486;BME280;13449;49.374;8.584;2023-10-08T12:16:42;101437.56;;;20.78;100.00
24486;BME280;13449;49.374;8.584;2023-10-08T12:19:09;101421.94;;;20.99;100.00
24486;BME280;13449;49.374;8.584;2023-10-08T12:21:46;101416.94;;;21.04;100.00
24486;BME280;13449;49.374;8.584;2023-10-08T12:24:14;101416.59;;;21.07;100.00
24486;BME280;13449;49.374;8.584;2023-10-08T12:26:41;101410.91;;;21.10;100.00
24486;BME280;13449;49.374;8.584;2023-10-08T12:29:15;101408.25;;;21.18;100.00
24486;BME280;13449;49.374;8.584;2023-10-08T12:31:47;101411.41;;;21.14;100.00
24486;BME280;13449;49.374;8.584;2023-10-08T12:34:14;101415.63;;;21.16;100.00
24486;BME280;13449;49.374;8.584;2023-10-08T12:36:41;101421.16;;;21.23;100.00
24486;BME280;13449;49.374;8.584;2023-10-08T12:39:08;101407.63;;;21.25;100.00
24486;BME280;13449;49.374;8.584;2023-10-08T12:41:42;101409.94;;;21.19;100.00
24486;BME280;13449;49.374;8.584;2023-10-08T12:44:11;101403.41;;;21.22;100.00
24486;BME280;13449;49.374;8.584;2023-10-08T12:46:43;101408.09;;;21.20;100.00
24486;BME280;13449;49.374;8.584;2023-10-08T12:49:10;101401.25;;;21.26;100.00
24486;BME280;13449;49.374;8.584;2023-10-08T12:51:37;101406.66;;;21.34;100.00
24486;BME280;13449;49.374;8.584;2023-10-08T12:54:07;101409.00;;;21.45;100.00
24486;BME280;13449;49.374;8.584;2023-10-08T12:56:38;101403.16;;;21.58;100.00
24486;BME280;13449;49.374;8.584;2023-10-08T12:59:11;101404.53;;;21.78;100.00
24486;BME280;13449;49.374;8.584;2023-10-08T13:01:47;101401.84;;;21.70;100.00
24486;BME280;13449;49.374;8.584;2023-10-08T13:04:18;101388.09;;;21.73;100.00
24486;BME280;13449;49.374;8.584;2023-10-08T13:06:54;101383.91;;;21.78;100.00
24486;BME280;13449;49.374;8.584;2023-10-08T13:09:24;101378.03;;;21.75;100.00
24486;BME280;13449;49.374;8.584;2023-10-08T13:11:51;101377.84;;;21.60;100.00
24486;BME280;13449;49.374;8.584;2023-10-08T13:14:17;101381.72;;;21.66;100.00